Time;durP1;ratioP1;P1;durP2;ratioP2;P2;SDS_P1;SDS_P2;PMS_P1;PMS_P2;Temp;Humidity;BMP_temperature;BMP_pressure;BME280_temperature;BME280_humidity;BME280_pressure;Samples;Min_cycle;Max_cycle;Signal;HPM_P1;HPM_P2
2022/04/11 00:00:54;;;;;;;32.83;12.40;;;;;;;0.26;100.00;100029.38;4186731;28;24119;-63
2022/04/11 00:03:21;;;;;;;31.63;13.50;;;;;;;0.27;100.00;100019.72;4172007;28;20239;-62
2022/04/11 00:05:47;;;;;;;28.03;12.40;;;;;;;0.24;100.00;100025.16;4176532;28;20840;-63
2022/04/11 00:08:14;;;;;;;30.43;12.70;;;;;;;0.25;100.00;100027.66;4199390;28;20651;-62
2022/04/11 00:10:40;;;;;;;28.60;13.03;;;;;;;0.28;100.00;100031.88;4191313;28;20236;-62
2022/04/11 00:13:08;;;;;;;27.70;12.07;;;;;;;0.18;100.00;100032.41;4196422;28;20228;-63
2022/04/11 00:15:38;;;;;;;29.60;12.57;;;;;;;0.19;100.00;100039.34;4169865;28;21300;-64
2022/04/11 00:18:06;;;;;;;26.20;12.90;;;;;;;0.21;100.00;100041.84;4199321;28;20625;-62
2022/04/11 00:20:33;;;;;;;36.20;13.23;;;;;;;0.19;100.00;100043.75;4190683;28;20233;-62
2022/04/11 00:23:00;;;;;;;26.50;12.87;;;;;;;0.18;100.00;100048.09;4188701;28;20239;-63
2022/04/11 00:25:27;;;;;;;29.73;12.53;;;;;;;0.23;100.00;100052.22;4187430;28;20806;-63
2022/04/11 00:27:53;;;;;;;25.93;11.73;;;;;;;0.20;100.00;100050.63;4191889;28;20240;-62
2022/04/11 00:30:20;;;;;;;36.23;12.37;;;;;;;0.19;100.00;100047.19;4168559;28;20240;-63
2022/04/11 00:32:47;;;;;;;30.20;12.37;;;;;;;0.17;100.00;100049.03;4176539;28;20285;-60
2022/04/11 00:35:14;;;;;;;32.17;12.70;;;;;;;0.15;100.00;100048.28;4179986;28;20300;-61
2022/04/11 00:37:40;;;;;;;30.50;12.07;;;;;;;0.14;100.00;100050.97;4191089;28;21297;-60
2022/04/11 00:40:08;;;;;;;28.60;12.13;;;;;;;0.14;100.00;100050.97;4193341;28;20236;-63
2022/04/11 00:42:35;;;;;;;30.87;11.67;;;;;;;0.15;100.00;100055.31;4183922;28;20243;-61
2022/04/11 00:45:01;;;;;;;28.27;11.03;;;;;;;0.15;100.00;100052.69;4165114;28;20241;-62
2022/04/11 00:47:28;;;;;;;25.47;11.73;;;;;;;0.16;100.00;100051.75;4189528;28;20245;-62
2022/04/11 00:50:00;;;;;;;24.37;10.87;;;;;;;0.17;100.00;100049.03;4167225;28;20233;-61
2022/04/11 00:52:29;;;;;;;23.53;10.53;;;;;;;0.15;100.00;100050.06;4192229;28;20287;-65
2022/04/11 00:54:57;;;;;;;24.30;11.63;;;;;;;0.20;100.00;100050.63;4169198;28;20615;-64
2022/04/11 00:57:24;;;;;;;32.13;12.00;;;;;;;0.16;100.00;100054.34;4167819;28;20425;-63
2022/04/11 00:59:50;;;;;;;24.33;12.00;;;;;;;0.18;100.00;100069.03;4164396;28;20331;-62
2022/04/11 01:02:17;;;;;;;25.40;11.53;;;;;;;0.19;100.00;100065.50;4190556;28;20627;-61
2022/04/11 01:04:44;;;;;;;31.40;12.50;;;;;;;0.14;100.00;100062.31;4177207;28;20280;-62
2022/04/11 01:07:14;;;;;;;29.53;12.73;;;;;;;0.16;100.00;100063.06;4191254;28;20229;-63
2022/04/11 01:09:41;;;;;;;33.13;13.40;;;;;;;0.12;100.00;100072.03;4193684;28;20220;-62
2022/04/11 01:12:08;;;;;;;27.10;12.00;;;;;;;0.14;100.00;100066.69;4191002;28;20236;-62
2022/04/11 01:14:34;;;;;;;28.23;13.30;;;;;;;0.07;100.00;100073.19;4193706;28;21643;-63
2022/04/11 01:17:01;;;;;;;30.50;13.03;;;;;;;0.02;100.00;100073.44;4189554;28;21261;-63
2022/04/11 01:19:27;;;;;;;28.30;12.90;;;;;;;-0.04;100.00;100073.81;4179208;28;20289;-64
2022/04/11 01:21:54;;;;;;;33.60;13.60;;;;;;;-0.02;100.00;100072.81;4195489;28;20426;-63
2022/04/11 01:24:21;;;;;;;36.13;14.53;;;;;;;-0.04;100.00;100074.66;4190325;28;22653;-61
2022/04/11 01:26:49;;;;;;;26.37;13.27;;;;;;;-0.05;100.00;100077.34;4200490;28;20975;-63
2022/04/11 01:29:17;;;;;;;33.17;12.93;;;;;;;-0.10;100.00;100087.22;4183508;28;23369;-62
2022/04/11 01:31:43;;;;;;;28.07;12.20;;;;;;;-0.10;100.00;100079.38;4193178;28;21185;-62
2022/04/11 01:34:10;;;;;;;29.07;13.90;;;;;;;-0.16;100.00;100077.97;4190746;28;20234;-62
2022/04/11 01:36:36;;;;;;;27.23;13.23;;;;;;;-0.18;100.00;100076.38;4173158;28;20420;-61
2022/04/11 01:39:03;;;;;;;35.47;14.30;;;;;;;-0.19;100.00;100080.72;4206818;28;22574;-61
2022/04/11 01:41:29;;;;;;;27.27;12.83;;;;;;;-0.18;100.00;100087.66;4202759;28;20275;-63
2022/04/11 01:43:56;;;;;;;25.43;12.97;;;;;;;-0.16;100.00;100087.59;4190719;28;21685;-63
2022/04/11 01:46:22;;;;;;;29.47;13.33;;;;;;;-0.18;100.00;100092.91;4189066;28;23083;-63
2022/04/11 01:48:49;;;;;;;29.93;12.83;;;;;;;-0.13;100.00;100090.84;4182174;28;21217;-64
2022/04/11 01:51:16;;;;;;;31.73;14.13;;;;;;;-0.21;100.00;100093.06;4182700;28;20259;-62
2022/04/11 01:53:42;;;;;;;27.50;13.40;;;;;;;-0.34;100.00;100092.06;4176179;28;20814;-61
2022/04/11 01:56:09;;;;;;;27.30;13.20;;;;;;;-0.33;100.00;100098.94;4186479;28;21237;-63
2022/04/11 01:58:35;;;;;;;30.03;12.87;;;;;;;-0.37;100.00;100100.06;4185837;28;21856;-61
2022/04/11 02:01:02;;;;;;;27.43;12.80;;;;;;;-0.48;100.00;100098.88;4181236;28;20298;-62
2022/04/11 02:03:29;;;;;;;30.00;14.77;;;;;;;-0.50;100.00;100103.31;4187273;28;20284;-62
2022/04/11 02:05:56;;;;;;;30.53;13.53;;;;;;;-0.52;100.00;100102.56;4180348;28;20465;-62
2022/04/11 02:08:24;;;;;;;33.17;14.53;;;;;;;-0.59;100.00;100103.81;4186814;28;21686;-63
2022/04/11 02:10:51;;;;;;;29.27;13.70;;;;;;;-0.60;100.00;100112.59;4170361;28;20402;-65
2022/04/11 02:13:18;;;;;;;34.83;14.50;;;;;;;-0.54;100.00;100111.41;4184286;28;20292;-64
2022/04/11 02:15:44;;;;;;;32.87;15.17;;;;;;;-0.57;100.00;100107.19;4177109;28;20241;-66
2022/04/11 02:18:11;;;;;;;33.63;14.60;;;;;;;-0.56;100.00;100114.13;4187804;28;20658;-64
2022/04/11 02:20:37;;;;;;;35.87;15.83;;;;;;;-0.56;100.00;100108.91;4184780;28;22513;-61
2022/04/11 02:23:04;;;;;;;35.73;15.07;;;;;;;-0.57;100.00;100108.97;4189536;28;20254;-62
2022/04/11 02:25:32;;;;;;;31.07;15.33;;;;;;;-0.55;100.00;100115.81;4191787;28;20961;-62
2022/04/11 02:27:59;;;;;;;33.57;15.57;;;;;;;-0.54;100.00;100108.81;4194168;28;21503;-63
2022/04/11 02:30:27;;;;;;;37.63;17.80;;;;;;;-0.51;100.00;100111.28;4174509;28;20677;-63
2022/04/11 02:32:55;;;;;;;38.77;17.13;;;;;;;-0.53;100.00;100113.13;4199529;28;20527;-62
2022/04/11 02:35:21;;;;;;;42.87;17.70;;;;;;;-0.51;100.00;100111.28;4189044;28;20675;-62
2022/04/11 02:37:48;;;;;;;40.37;17.80;;;;;;;-0.49;100.00;100110.25;4202680;28;20890;-63
2022/04/11 02:40:15;;;;;;;39.43;18.20;;;;;;;-0.56;100.00;100114.13;4186563;28;20701;-63
2022/04/11 02:42:42;;;;;;;40.10;17.10;;;;;;;-0.56;100.00;100119.34;4179395;28;20252;-61
2022/04/11 02:45:10;;;;;;;37.67;18.23;;;;;;;-0.61;100.00;100116.13;4172061;28;21212;-63
2022/04/11 02:47:36;;;;;;;43.93;18.23;;;;;;;-0.60;100.00;100115.22;4180815;28;22337;-61
2022/04/11 02:50:03;;;;;;;40.77;19.00;;;;;;;-0.61;100.00;100113.50;4178123;28;20363;-61
2022/04/11 02:52:30;;;;;;;38.23;19.23;;;;;;;-0.67;100.00;100119.91;4183891;28;20233;-62
2022/04/11 02:54:56;;;;;;;41.67;18.03;;;;;;;-0.64;100.00;100108.44;4199620;28;20234;-61
2022/04/11 02:57:23;;;;;;;43.57;19.10;;;;;;;-0.70;100.00;100111.41;4192625;28;20228;-62
2022/04/11 02:59:50;;;;;;;37.63;18.53;;;;;;;-0.75;100.00;100116.00;4186410;28;20288;-62
2022/04/11 03:02:17;;;;;;;47.80;19.10;;;;;;;-0.81;100.00;100113.75;4173611;28;23247;-64
2022/04/11 03:04:45;;;;;;;50.60;19.90;;;;;;;-0.88;100.00;100119.28;4188315;28;22531;-64
2022/04/11 03:07:12;;;;;;;40.90;19.80;;;;;;;-0.89;100.00;100122.81;4176441;28;20234;-62
2022/04/11 03:09:38;;;;;;;45.87;21.10;;;;;;;-0.89;100.00;100121.94;4171053;28;20300;-64
2022/04/11 03:12:06;;;;;;;45.13;19.70;;;;;;;-0.92;100.00;100122.13;4183809;28;23548;-65
2022/04/11 03:14:33;;;;;;;46.33;20.93;;;;;;;-0.95;100.00;100127.50;4190376;28;20237;-63
2022/04/11 03:16:59;;;;;;;47.53;20.90;;;;;;;-0.96;100.00;100131.91;4177787;28;20237;-62
2022/04/11 03:19:26;;;;;;;41.23;20.87;;;;;;;-0.95;100.00;100132.75;4186668;28;20240;-62
2022/04/11 03:21:52;;;;;;;45.77;20.77;;;;;;;-0.98;100.00;100133.75;4180764;28;20252;-61
2022/04/11 03:24:18;;;;;;;49.00;20.50;;;;;;;-1.02;100.00;100134.81;4174384;28;21783;-60
2022/04/11 03:26:45;;;;;;;47.17;21.63;;;;;;;-1.03;100.00;100133.13;4180585;28;20748;-61
2022/04/11 03:29:12;;;;;;;42.70;20.33;;;;;;;-0.98;100.00;100133.75;4187933;28;20361;-62
2022/04/11 03:31:38;;;;;;;47.27;20.67;;;;;;;-0.94;100.00;100135.25;4178825;28;20310;-62
2022/04/11 03:34:05;;;;;;;43.43;20.57;;;;;;;-0.96;100.00;100136.25;4176265;28;20281;-62
2022/04/11 03:36:31;;;;;;;43.37;20.60;;;;;;;-0.91;100.00;100134.28;4181165;28;20353;-62
2022/04/11 03:38:57;;;;;;;46.33;21.23;;;;;;;-0.91;100.00;100131.66;4176648;28;20247;-62
2022/04/11 03:41:25;;;;;;;44.07;20.43;;;;;;;-0.93;100.00;100134.34;4190786;28;20231;-63
2022/04/11 03:43:51;;;;;;;49.03;20.97;;;;;;;-0.92;100.00;100137.78;4177075;28;20246;-63
2022/04/11 03:46:18;;;;;;;53.17;22.53;;;;;;;-0.93;100.00;100136.13;4175201;28;20245;-62
2022/04/11 03:48:44;;;;;;;48.27;21.90;;;;;;;-0.91;100.00;100140.34;4154581;28;20234;-63
2022/04/11 03:51:11;;;;;;;48.23;20.87;;;;;;;-0.93;100.00;100136.97;4198003;28;20233;-62
2022/04/11 03:53:37;;;;;;;43.03;20.03;;;;;;;-0.94;100.00;100135.25;4195899;28;20287;-61
2022/04/11 03:56:05;;;;;;;52.17;22.17;;;;;;;-0.98;100.00;100144.19;4193030;28;23035;-63
2022/04/11 03:58:31;;;;;;;49.80;21.10;;;;;;;-1.02;100.00;100142.66;4199818;28;20351;-62
2022/04/11 04:00:59;;;;;;;52.27;22.17;;;;;;;-1.01;100.00;100146.09;4183885;28;20236;-64
2022/04/11 04:03:27;;;;;;;49.97;22.13;;;;;;;-1.01;100.00;100146.94;4185705;28;20236;-62
2022/04/11 04:05:54;;;;;;;43.47;22.00;;;;;;;-0.98;100.00;100149.41;4184601;28;20241;-62
2022/04/11 04:08:21;;;;;;;54.27;22.53;;;;;;;-1.01;100.00;100156.53;4209636;28;22188;-62
2022/04/11 04:10:48;;;;;;;51.13;22.77;;;;;;;-0.95;100.00;100158.84;4203936;28;20592;-62
2022/04/11 04:13:14;;;;;;;48.90;22.77;;;;;;;-0.93;100.00;100165.69;4200628;28;25188;-62
2022/04/11 04:15:42;;;;;;;48.23;22.77;;;;;;;-0.89;100.00;100162.00;4212948;28;20234;-64
2022/04/11 04:18:10;;;;;;;48.83;23.27;;;;;;;-0.94;100.00;100161.38;4187928;28;21662;-65
2022/04/11 04:20:37;;;;;;;52.90;23.47;;;;;;;-0.89;100.00;100159.38;4176011;28;21880;-61
2022/04/11 04:23:03;;;;;;;53.47;24.07;;;;;;;-0.90;100.00;100168.13;4190510;28;20242;-64
2022/04/11 04:25:30;;;;;;;48.67;23.10;;;;;;;-0.92;100.00;100169.97;4199013;28;20641;-61
2022/04/11 04:27:56;;;;;;;46.07;23.30;;;;;;;-0.88;100.00;100176.75;4193847;28;21518;-62
2022/04/11 04:30:23;;;;;;;49.80;22.87;;;;;;;-0.76;100.00;100170.03;4190760;28;20229;-61
2022/04/11 04:32:50;;;;;;;56.67;23.90;;;;;;;-0.65;100.00;100178.16;4182834;28;20575;-64
2022/04/11 04:35:16;;;;;;;47.43;24.10;;;;;;;-0.55;100.00;100178.53;4186616;28;20233;-60
2022/04/11 04:37:43;;;;;;;46.27;23.00;;;;;;;-0.53;100.00;100175.84;4192473;28;20264;-61
2022/04/11 04:40:10;;;;;;;59.83;22.43;;;;;;;-0.49;100.00;100182.59;4190489;28;20240;-61
2022/04/11 04:42:37;;;;;;;47.17;22.03;;;;;;;-0.56;100.00;100179.47;4181729;28;25353;-63
2022/04/11 04:45:05;;;;;;;50.20;22.90;;;;;;;-0.53;100.00;100181.06;4183806;28;20263;-62
2022/04/11 04:47:32;;;;;;;49.63;23.50;;;;;;;-0.41;100.00;100184.81;4203084;28;20237;-62
2022/04/11 04:49:58;;;;;;;60.93;25.87;;;;;;;-0.08;100.00;100187.38;4188388;28;20229;-65
2022/04/11 04:52:25;;;;;;;50.00;23.13;;;;;;;0.13;100.00;100190.59;4181788;28;20598;-61
2022/04/11 04:54:51;;;;;;;46.93;22.67;;;;;;;0.26;100.00;100191.59;4184885;28;20241;-62
2022/04/11 04:57:18;;;;;;;50.23;21.90;;;;;;;0.25;100.00;100183.84;4192940;28;23137;-62
2022/04/11 04:59:45;;;;;;;44.30;21.07;;;;;;;0.29;100.00;100180.13;4178786;28;22488;-61
2022/04/11 05:02:11;;;;;;;40.13;20.00;;;;;;;0.30;100.00;100182.63;4192191;28;22039;-61
2022/04/11 05:04:38;;;;;;;44.67;20.80;;;;;;;0.29;100.00;100191.44;4203379;28;25801;-62
2022/04/11 05:07:05;;;;;;;45.73;19.90;;;;;;;0.24;100.00;100193.47;4172478;28;20245;-62
2022/04/11 05:09:31;;;;;;;45.63;19.90;;;;;;;0.29;100.00;100198.44;4195647;28;20350;-62
2022/04/11 05:11:58;;;;;;;47.13;20.27;;;;;;;0.42;100.00;100199.41;4194489;28;23047;-63
2022/04/11 05:14:25;;;;;;;45.13;19.80;;;;;;;0.34;100.00;100205.09;4203520;28;20361;-63
2022/04/11 05:16:52;;;;;;;41.50;19.17;;;;;;;0.25;100.00;100202.16;4202767;28;20725;-64
2022/04/11 05:19:19;;;;;;;39.67;18.37;;;;;;;0.34;100.00;100197.25;4192606;28;23074;-62
2022/04/11 05:21:45;;;;;;;40.33;18.30;;;;;;;0.37;100.00;100199.69;4184019;28;23785;-65
2022/04/11 05:24:12;;;;;;;35.33;17.97;;;;;;;0.60;100.00;100200.16;4176736;28;25447;-61
2022/04/11 05:26:38;;;;;;;38.13;17.73;;;;;;;0.74;100.00;100202.84;4177130;28;20230;-63
2022/04/11 05:29:05;;;;;;;33.67;17.43;;;;;;;0.93;100.00;100200.00;4167095;28;20408;-61
2022/04/11 05:31:32;;;;;;;35.17;16.63;;;;;;;0.86;100.00;100200.44;4178521;28;20297;-65
2022/04/11 05:34:00;;;;;;;44.53;17.57;;;;;;;1.07;100.00;100199.19;4162116;28;20232;-65
2022/04/11 05:36:26;;;;;;;36.77;15.90;;;;;;;1.25;100.00;100208.59;4184028;28;22268;-64
2022/04/11 05:38:53;;;;;;;31.03;16.13;;;;;;;1.56;100.00;100219.84;4188728;28;21644;-66
2022/04/11 05:41:19;;;;;;;30.13;14.93;;;;;;;1.34;100.00;100222.09;4187970;28;20306;-68
2022/04/11 05:43:46;;;;;;;32.47;15.33;;;;;;;1.32;100.00;100218.72;4182399;28;20468;-65
2022/04/11 05:46:12;;;;;;;28.30;15.17;;;;;;;1.35;100.00;100221.97;4193063;28;20424;-65
2022/04/11 05:48:40;;;;;;;35.27;16.57;;;;;;;1.38;100.00;100227.06;4185424;28;20289;-63
2022/04/11 05:51:07;;;;;;;38.53;17.03;;;;;;;1.63;100.00;100233.44;4186683;28;20232;-65
2022/04/11 05:53:34;;;;;;;33.53;15.50;;;;;;;1.90;100.00;100225.69;4205189;28;20359;-66
2022/04/11 05:56:00;;;;;;;32.43;16.63;;;;;;;1.77;100.00;100225.56;4176317;28;20433;-66
2022/04/11 05:58:27;;;;;;;34.30;17.13;;;;;;;1.99;100.00;100230.34;4185277;28;22582;-64
2022/04/11 06:00:56;;;;;;;35.60;16.23;;;;;;;2.46;100.00;100244.91;4189310;28;20952;-65
2022/04/11 06:03:22;;;;;;;37.50;16.80;;;;;;;2.63;98.69;100237.72;4184499;28;20731;-65
2022/04/11 06:05:49;;;;;;;28.97;15.13;;;;;;;2.27;97.48;100233.84;4185364;28;20246;-65
2022/04/11 06:08:16;;;;;;;29.70;15.17;;;;;;;1.85;99.62;100238.22;4188995;28;23631;-66
2022/04/11 06:10:44;;;;;;;32.50;15.03;;;;;;;1.75;100.00;100237.09;4181057;28;23810;-64
2022/04/11 06:13:10;;;;;;;30.77;13.67;;;;;;;1.71;100.00;100243.47;4192141;28;20249;-68
2022/04/11 06:15:37;;;;;;;29.43;14.97;;;;;;;1.72;100.00;100242.53;4182559;28;20241;-66
2022/04/11 06:18:04;;;;;;;36.23;15.10;;;;;;;1.75;100.00;100243.19;4182180;28;21158;-65
2022/04/11 06:20:31;;;;;;;31.70;15.67;;;;;;;1.68;100.00;100247.13;4184539;28;20234;-65
2022/04/11 06:22:58;;;;;;;37.73;17.63;;;;;;;1.71;100.00;100251.34;4211436;28;21178;-65
2022/04/11 06:25:24;;;;;;;43.87;18.33;;;;;;;1.85;100.00;100248.72;4191252;28;20232;-63
2022/04/11 06:27:51;;;;;;;38.50;17.73;;;;;;;1.82;100.00;100255.00;4219610;28;20271;-64
2022/04/11 06:30:17;;;;;;;37.67;17.13;;;;;;;1.76;100.00;100254.53;4186928;28;23379;-63
2022/04/11 06:32:45;;;;;;;36.23;17.53;;;;;;;1.66;100.00;100254.22;4192207;28;20282;-62
2022/04/11 06:35:12;;;;;;;34.90;17.93;;;;;;;1.74;100.00;100256.41;4207531;28;20238;-63
2022/04/11 06:37:38;;;;;;;30.23;15.53;;;;;;;1.83;100.00;100255.84;4181775;28;20230;-62
2022/04/11 06:40:05;;;;;;;33.43;17.03;;;;;;;1.92;100.00;100257.91;4204189;28;20342;-63
2022/04/11 06:42:32;;;;;;;31.47;15.97;;;;;;;1.95;100.00;100265.59;4184244;28;21142;-65
2022/04/11 06:44:58;;;;;;;32.37;13.87;;;;;;;1.79;100.00;100262.22;4201270;28;20255;-63
2022/04/11 06:47:25;;;;;;;27.77;15.03;;;;;;;1.79;100.00;100270.09;4196021;28;20232;-63
2022/04/11 06:49:52;;;;;;;30.13;15.77;;;;;;;2.24;100.00;100260.31;4211351;28;20283;-66
2022/04/11 06:52:18;;;;;;;29.20;14.57;;;;;;;2.67;98.14;100268.94;4210193;28;23448;-64
2022/04/11 06:54:45;;;;;;;33.77;14.23;;;;;;;2.96;95.53;100272.31;4223595;28;20233;-64
2022/04/11 06:57:12;;;;;;;32.63;14.27;;;;;;;2.88;94.57;100281.63;4197543;28;20336;-65
2022/04/11 06:59:38;;;;;;;26.80;13.00;;;;;;;3.26;93.35;100278.28;4208310;28;20248;-64
2022/04/11 07:02:05;;;;;;;27.23;13.87;;;;;;;2.98;92.56;100274.00;4196792;28;22880;-64
2022/04/11 07:04:32;;;;;;;31.77;14.40;;;;;;;2.81;93.30;100280.34;4188432;28;23310;-66
2022/04/11 07:06:59;;;;;;;24.73;13.50;;;;;;;2.43;94.67;100281.84;4174766;28;20249;-63
2022/04/11 07:09:26;;;;;;;26.57;13.27;;;;;;;2.49;96.15;100280.63;4183959;28;20677;-65
2022/04/11 07:11:53;;;;;;;30.20;13.87;;;;;;;2.88;94.26;100292.13;4192639;28;21338;-63
2022/04/11 07:14:20;;;;;;;29.57;14.13;;;;;;;3.25;92.84;100287.09;4191206;28;20860;-64
2022/04/11 07:16:48;;;;;;;29.37;14.50;;;;;;;4.06;89.99;100281.56;4206928;28;20232;-63
2022/04/11 07:19:15;;;;;;;33.30;15.00;;;;;;;4.07;86.43;100291.16;4185949;28;20246;-65
2022/04/11 07:21:42;;;;;;;27.37;12.67;;;;;;;3.88;86.52;100288.94;4191058;28;22960;-64
2022/04/11 07:24:08;;;;;;;26.23;13.00;;;;;;;3.68;87.38;100290.34;4193566;28;20320;-65
2022/04/11 07:26:35;;;;;;;24.50;12.60;;;;;;;3.68;87.72;100282.44;4194922;28;22745;-65
2022/04/11 07:29:01;;;;;;;31.90;13.97;;;;;;;3.89;87.70;100295.09;4193518;28;20238;-63
2022/04/11 07:31:30;;;;;;;26.80;12.73;;;;;;;4.13;85.52;100292.53;4173177;28;20542;-64
2022/04/11 07:33:57;;;;;;;26.40;13.43;;;;;;;4.40;84.65;100295.00;4199503;28;20232;-66
2022/04/11 07:36:24;;;;;;;27.17;14.00;;;;;;;4.12;85.00;100296.97;4195365;28;20244;-61
2022/04/11 07:38:50;;;;;;;27.27;12.40;;;;;;;4.37;84.32;100305.75;4209580;28;20327;-65
2022/04/11 07:41:17;;;;;;;28.30;12.20;;;;;;;5.32;80.16;100300.66;4234926;28;20230;-65
2022/04/11 07:43:44;;;;;;;22.10;10.77;;;;;;;6.70;74.83;100313.78;4204978;28;20291;-64
2022/04/11 07:46:10;;;;;;;20.13;11.03;;;;;;;6.45;72.73;100304.31;4214365;28;20225;-63
2022/04/11 07:48:37;;;;;;;24.53;11.77;;;;;;;7.17;70.97;100306.44;4187823;28;21970;-62
2022/04/11 07:51:04;;;;;;;21.83;11.00;;;;;;;7.56;67.88;100307.56;4209144;28;20523;-63
2022/04/11 07:53:30;;;;;;;22.03;11.90;;;;;;;7.17;69.60;100309.06;4229293;28;24948;-63
2022/04/11 07:55:57;;;;;;;22.63;11.27;;;;;;;8.41;65.42;100313.63;4199550;28;20257;-64
2022/04/11 07:58:24;;;;;;;23.00;11.50;;;;;;;8.24;64.09;100317.69;4237385;28;22188;-63
2022/04/11 08:00:52;;;;;;;22.03;10.57;;;;;;;7.93;64.36;100303.59;4199227;28;20235;-63
2022/04/11 08:03:19;;;;;;;19.30;10.43;;;;;;;8.09;64.61;100324.34;4200245;28;20229;-64
2022/04/11 08:05:49;;;;;;;20.53;9.63;;;;;;;7.16;65.52;100310.88;4254053;28;20370;-62
2022/04/11 08:08:16;;;;;;;21.47;11.80;;;;;;;6.24;70.73;100304.19;4204214;28;20229;-65
2022/04/11 08:10:42;;;;;;;25.30;12.87;;;;;;;5.28;75.68;100303.50;4219797;28;23063;-63
2022/04/11 08:13:09;;;;;;;32.37;13.17;;;;;;;4.72;79.51;100307.66;4214570;28;20233;-65
2022/04/11 08:15:36;;;;;;;20.70;13.63;;;;;;;5.20;79.89;100315.59;4184432;28;20269;-63
2022/04/11 08:18:03;;;;;;;26.13;14.27;;;;;;;5.84;76.49;100320.47;4195478;28;22433;-66
2022/04/11 08:20:30;;;;;;;26.43;15.03;;;;;;;5.35;76.93;100319.72;4197344;28;20657;-61
2022/04/11 08:22:56;;;;;;;31.67;15.20;;;;;;;4.90;78.28;100323.97;4199187;28;20287;-69
2022/04/11 08:25:23;;;;;;;28.07;14.83;;;;;;;4.96;77.67;100334.88;4193068;28;21455;-64
2022/04/11 08:27:50;;;;;;;31.73;16.90;;;;;;;4.79;77.16;100337.91;4185118;28;20229;-63
2022/04/11 08:30:16;;;;;;;29.70;17.07;;;;;;;4.63;78.18;100335.53;4194418;28;20271;-63
2022/04/11 08:32:47;;;;;;;29.87;17.40;;;;;;;4.36;79.76;100330.44;4178634;28;20780;-62
2022/04/11 08:35:15;;;;;;;29.03;17.63;;;;;;;4.42;80.43;100329.97;4208877;28;22074;-65
2022/04/11 08:37:42;;;;;;;27.10;15.53;;;;;;;4.45;81.95;100324.50;4195178;28;20225;-65
2022/04/11 08:40:12;;;;;;;26.93;17.03;;;;;;;4.68;79.74;100327.28;4216888;28;21326;-66
2022/04/11 08:42:40;;;;;;;30.07;16.00;;;;;;;4.63;79.05;100331.09;4205028;28;20237;-64
2022/04/11 08:45:13;;;;;;;29.17;14.43;;;;;;;4.95;77.65;100333.22;4180969;28;20245;-64
2022/04/11 08:47:41;;;;;;;26.60;14.50;;;;;;;5.16;77.72;100335.25;4192732;28;20240;-65
2022/04/11 08:50:08;;;;;;;26.87;13.80;;;;;;;5.02;77.44;100329.16;4177028;28;23594;-66
2022/04/11 08:52:36;;;;;;;26.67;12.60;;;;;;;5.41;76.62;100327.19;4202368;28;20250;-66
2022/04/11 08:55:03;;;;;;;22.37;12.30;;;;;;;5.18;76.58;100328.06;4213686;28;20235;-65
2022/04/11 08:57:30;;;;;;;20.03;9.40;;;;;;;4.95;76.74;100332.38;4203251;28;20291;-66
2022/04/11 09:00:17;;;;;;;22.93;8.73;;;;;;;5.01;77.21;100318.72;4222422;28;20279;-67
2022/04/11 09:02:44;;;;;;;16.97;8.10;;;;;;;5.16;75.98;100329.97;4199059;28;26458;-67
2022/04/11 09:05:17;;;;;;;14.60;7.03;;;;;;;5.00;73.17;100324.97;4211144;28;20224;-68
2022/04/11 09:07:50;;;;;;;19.67;8.20;;;;;;;5.08;72.99;100330.53;4198374;28;20784;-66
2022/04/11 09:10:18;;;;;;;18.93;7.77;;;;;;;4.78;75.58;100325.69;4209988;28;21212;-68
2022/04/11 09:12:47;;;;;;;18.47;8.37;;;;;;;4.72;76.86;100334.03;4184744;28;20241;-67
2022/04/11 09:15:14;;;;;;;21.83;7.90;;;;;;;5.28;75.02;100335.16;4201363;28;20237;-67
2022/04/11 09:17:42;;;;;;;16.73;7.37;;;;;;;5.52;71.09;100330.81;4210912;28;20324;-67
2022/04/11 09:20:12;;;;;;;18.03;7.43;;;;;;;5.62;72.05;100332.66;4203039;28;20256;-67
2022/04/11 09:22:42;;;;;;;14.57;6.20;;;;;;;5.64;71.86;100329.88;4218466;28;20794;-67
2022/04/11 09:25:14;;;;;;;13.90;6.87;;;;;;;5.65;71.68;100331.59;4203214;28;20242;-65
2022/04/11 09:27:41;;;;;;;15.53;6.10;;;;;;;5.81;69.52;100326.81;4284649;28;20225;-67
2022/04/11 09:30:18;;;;;;;12.90;6.77;;;;;;;6.19;69.58;100325.69;4222168;28;21304;-64
2022/04/11 09:33:00;;;;;;;13.67;5.90;;;;;;;6.15;67.83;100323.41;4217002;28;20239;-66
2022/04/11 09:35:31;;;;;;;13.57;4.83;;;;;;;5.95;64.34;100332.84;4212495;28;20258;-66
2022/04/11 09:38:07;;;;;;;11.73;5.03;;;;;;;5.83;66.48;100318.75;4199601;28;20237;-66
2022/04/11 09:40:48;;;;;;;10.57;5.10;;;;;;;6.05;66.17;100323.28;4212962;28;20392;-65
2022/04/11 09:43:17;;;;;;;14.97;6.37;;;;;;;6.04;69.17;100334.78;4231549;28;22186;-64
2022/04/11 09:45:45;;;;;;;10.73;5.40;;;;;;;6.02;66.31;100329.66;4240886;28;20456;-67
2022/04/11 09:48:18;;;;;;;13.20;6.13;;;;;;;6.11;67.60;100330.72;4248052;28;26158;-64
2022/04/11 09:50:45;;;;;;;13.00;5.87;;;;;;;5.96;68.48;100329.28;4232097;28;20233;-67
2022/04/11 09:53:17;;;;;;;13.90;5.70;;;;;;;5.81;68.14;100332.09;4191167;28;22625;-67
2022/04/11 09:55:48;;;;;;;12.20;5.67;;;;;;;5.86;68.41;100337.88;4211086;28;20241;-67
2022/04/11 09:58:17;;;;;;;12.83;5.27;;;;;;;6.13;67.89;100321.75;4221550;28;20270;-66
2022/04/11 10:00:44;;;;;;;14.80;5.77;;;;;;;6.30;66.91;100328.34;4225694;28;21717;-66
2022/04/11 10:03:11;;;;;;;10.70;4.53;;;;;;;6.14;64.51;100327.84;4227052;28;23595;-65
2022/04/11 10:05:39;;;;;;;12.80;4.90;;;;;;;5.99;67.02;100318.47;4191743;28;20764;-66
2022/04/11 10:08:07;;;;;;;10.40;4.87;;;;;;;6.11;67.24;100317.50;4209310;28;20248;-64
2022/04/11 10:10:38;;;;;;;14.93;4.77;;;;;;;6.33;66.47;100325.44;4203226;28;20255;-69
2022/04/11 10:13:15;;;;;;;18.37;5.60;;;;;;;6.26;65.61;100320.78;4201351;28;20236;-64
2022/04/11 10:15:46;;;;;;;20.13;5.87;;;;;;;6.54;65.85;100315.00;4200278;28;20275;-65
2022/04/11 10:18:17;;;;;;;11.27;5.00;;;;;;;6.64;64.59;100315.09;4199822;28;20614;-66
2022/04/11 10:20:49;;;;;;;13.43;5.17;;;;;;;6.84;62.74;100323.25;4178358;28;20440;-68
2022/04/11 10:24:05;;;;;;;9.53;4.50;;;;;;;6.97;62.12;100314.16;4213813;28;20418;-65
2022/04/11 10:26:45;;;;;;;12.93;5.00;;;;;;;7.07;63.01;100311.63;4212630;28;20234;-67
2022/04/11 10:29:34;;;;;;;21.93;5.60;;;;;;;7.60;61.87;100324.88;4203700;28;20760;-65
2022/04/11 10:32:04;;;;;;;11.70;4.67;;;;;;;7.38;59.70;100319.69;4218518;28;20276;-65
2022/04/11 10:34:57;;;;;;;11.23;4.77;;;;;;;7.49;61.20;100317.00;4223995;28;21863;-63
2022/04/11 10:37:49;;;;;;;15.20;5.20;;;;;;;7.12;61.24;100329.78;4191282;28;23089;-65
2022/04/11 10:40:15;;;;;;;15.60;5.23;;;;;;;6.78;65.83;100315.78;4199628;28;21805;-66
2022/04/11 10:43:04;;;;;;;11.10;4.57;;;;;;;6.43;69.14;100322.09;4214642;28;20257;-65
2022/04/11 10:45:40;;;;;;;13.50;4.47;;;;;;;6.30;70.47;100327.50;4219530;28;22279;-67
2022/04/11 10:48:12;;;;;;;10.47;4.87;;;;;;;6.25;69.82;100330.50;4182378;28;20229;-68
2022/04/11 10:50:43;;;;;;;11.77;5.00;;;;;;;6.38;70.35;100332.19;4182526;28;21070;-68
2022/04/11 10:53:17;;;;;;;16.47;4.57;;;;;;;6.25;69.85;100330.50;4162050;28;22593;-68
2022/04/11 10:56:04;;;;;;;10.27;4.13;;;;;;;5.87;71.40;100323.69;4176320;28;20728;-68
2022/04/11 10:58:47;;;;;;;10.17;4.13;;;;;;;6.02;72.90;100328.81;4166481;28;20230;-69
2022/04/11 11:01:15;;;;;;;6.67;3.30;;;;;;;5.84;70.96;100331.88;4165984;28;20355;-74
2022/04/11 11:04:00;;;;;;;9.83;3.17;;;;;;;5.93;70.92;100336.44;4209498;28;20236;-67
2022/04/11 11:06:27;;;;;;;8.00;2.53;;;;;;;6.19;69.22;100336.25;4186461;28;21275;-72
2022/04/11 11:08:54;;;;;;;6.43;2.27;;;;;;;6.25;66.99;100340.22;4192303;28;21915;-67
2022/04/11 11:11:25;;;;;;;10.77;2.17;;;;;;;6.07;67.11;100339.88;4203027;28;20397;-74
2022/04/11 11:13:54;;;;;;;7.03;2.60;;;;;;;6.02;65.42;100334.94;4193235;28;20229;-68
2022/04/11 11:16:27;;;;;;;6.00;2.00;;;;;;;6.04;64.54;100337.44;4178029;28;20235;-69